sensor_id;sensor_type;location;lat;lon;timestamp;temperature;humidity
29803;DHT22;16702;50.898;4.662;2022-08-25T00:02:00;25.70;99.90
29803;DHT22;16702;50.898;4.662;2022-08-25T00:04:32;25.70;99.90
29803;DHT22;16702;50.898;4.662;2022-08-25T00:07:04;25.70;99.90
29803;DHT22;16702;50.898;4.662;2022-08-25T00:09:37;25.70;99.90
29803;DHT22;16702;50.898;4.662;2022-08-25T00:12:07;25.70;99.90
29803;DHT22;16702;50.898;4.662;2022-08-25T00:14:38;25.60;99.90
29803;DHT22;16702;50.898;4.662;2022-08-25T00:17:12;25.50;99.90
29803;DHT22;16702;50.898;4.662;2022-08-25T00:19:42;25.50;99.90
29803;DHT22;16702;50.898;4.662;2022-08-25T00:22:12;25.50;99.90
29803;DHT22;16702;50.898;4.662;2022-08-25T00:24:48;25.40;99.90
29803;DHT22;16702;50.898;4.662;2022-08-25T00:27:18;25.50;99.90
29803;DHT22;16702;50.898;4.662;2022-08-25T00:29:49;25.40;99.90
29803;DHT22;16702;50.898;4.662;2022-08-25T00:32:19;25.40;99.90
29803;DHT22;16702;50.898;4.662;2022-08-25T00:34:51;25.30;99.90
29803;DHT22;16702;50.898;4.662;2022-08-25T00:37:22;25.30;99.90
29803;DHT22;16702;50.898;4.662;2022-08-25T00:39:55;25.30;99.90
29803;DHT22;16702;50.898;4.662;2022-08-25T00:42:25;25.30;99.90
29803;DHT22;16702;50.898;4.662;2022-08-25T00:44:56;25.30;99.90
29803;DHT22;16702;50.898;4.662;2022-08-25T00:47:26;25.20;99.90
29803;DHT22;16702;50.898;4.662;2022-08-25T00:49:59;25.20;99.90
29803;DHT22;16702;50.898;4.662;2022-08-25T00:52:34;25.20;99.90
29803;DHT22;16702;50.898;4.662;2022-08-25T00:55:11;25.10;99.90
29803;DHT22;16702;50.898;4.662;2022-08-25T00:57:46;25.10;99.90
29803;DHT22;16702;50.898;4.662;2022-08-25T01:00:21;25.10;99.90
29803;DHT22;16702;50.898;4.662;2022-08-25T01:02:53;25.00;99.90
29803;DHT22;16702;50.898;4.662;2022-08-25T01:05:25;25.00;99.90
29803;DHT22;16702;50.898;4.662;2022-08-25T01:07:57;25.00;99.90
29803;DHT22;16702;50.898;4.662;2022-08-25T01:10:36;24.90;99.90
29803;DHT22;16702;50.898;4.662;2022-08-25T01:13:12;24.90;99.90
29803;DHT22;16702;50.898;4.662;2022-08-25T01:15:44;24.90;99.90
29803;DHT22;16702;50.898;4.662;2022-08-25T01:18:15;24.90;99.90
29803;DHT22;16702;50.898;4.662;2022-08-25T01:20:51;24.80;99.90
29803;DHT22;16702;50.898;4.662;2022-08-25T01:23:23;24.90;99.90
29803;DHT22;16702;50.898;4.662;2022-08-25T01:26:00;24.80;99.90
29803;DHT22;16702;50.898;4.662;2022-08-25T01:28:31;24.70;99.90
29803;DHT22;16702;50.898;4.662;2022-08-25T01:31:02;24.70;99.90
29803;DHT22;16702;50.898;4.662;2022-08-25T01:33:50;24.70;99.90
29803;DHT22;16702;50.898;4.662;2022-08-25T01:36:24;24.70;99.90
29803;DHT22;16702;50.898;4.662;2022-08-25T01:38:55;24.70;99.90
29803;DHT22;16702;50.898;4.662;2022-08-25T01:41:40;24.60;99.90
29803;DHT22;16702;50.898;4.662;2022-08-25T01:44:17;24.60;99.90
29803;DHT22;16702;50.898;4.662;2022-08-25T01:46:48;24.60;99.90
29803;DHT22;16702;50.898;4.662;2022-08-25T01:49:18;24.60;99.90
29803;DHT22;16702;50.898;4.662;2022-08-25T01:51:55;24.50;99.90
29803;DHT22;16702;50.898;4.662;2022-08-25T01:54:29;24.50;99.90
29803;DHT22;16702;50.898;4.662;2022-08-25T01:57:03;24.50;99.90
29803;DHT22;16702;50.898;4.662;2022-08-25T01:59:35;24.50;99.90
29803;DHT22;16702;50.898;4.662;2022-08-25T02:02:06;24.50;99.90
29803;DHT22;16702;50.898;4.662;2022-08-25T02:04:37;24.50;99.90
29803;DHT22;16702;50.898;4.662;2022-08-25T02:07:13;24.50;99.90
29803;DHT22;16702;50.898;4.662;2022-08-25T02:09:44;24.40;99.90
29803;DHT22;16702;50.898;4.662;2022-08-25T02:12:14;24.40;99.90
29803;DHT22;16702;50.898;4.662;2022-08-25T02:14:45;24.40;99.90
29803;DHT22;16702;50.898;4.662;2022-08-25T02:17:15;24.50;99.90
29803;DHT22;16702;50.898;4.662;2022-08-25T02:19:46;24.40;99.90
29803;DHT22;16702;50.898;4.662;2022-08-25T02:22:19;24.50;99.90
29803;DHT22;16702;50.898;4.662;2022-08-25T02:24:49;24.40;99.90
29803;DHT22;16702;50.898;4.662;2022-08-25T02:27:19;24.40;99.90
29803;DHT22;16702;50.898;4.662;2022-08-25T02:29:50;24.40;99.90
29803;DHT22;16702;50.898;4.662;2022-08-25T02:32:21;24.40;99.90
29803;DHT22;16702;50.898;4.662;2022-08-25T02:34:51;24.40;99.90
29803;DHT22;16702;50.898;4.662;2022-08-25T02:37:24;24.30;99.90
29803;DHT22;16702;50.898;4.662;2022-08-25T02:39:55;24.30;99.90
29803;DHT22;16702;50.898;4.662;2022-08-25T02:42:26;24.30;99.90
29803;DHT22;16702;50.898;4.662;2022-08-25T02:44:56;24.30;99.90
29803;DHT22;16702;50.898;4.662;2022-08-25T02:47:27;24.30;99.90
29803;DHT22;16702;50.898;4.662;2022-08-25T02:49:58;24.20;99.90
29803;DHT22;16702;50.898;4.662;2022-08-25T02:52:31;24.00;99.90
29803;DHT22;16702;50.898;4.662;2022-08-25T02:55:01;24.20;99.90
29803;DHT22;16702;50.898;4.662;2022-08-25T02:57:32;24.20;99.90
29803;DHT22;16702;50.898;4.662;2022-08-25T03:00:04;24.10;99.90
29803;DHT22;16702;50.898;4.662;2022-08-25T03:02:38;24.10;99.90
29803;DHT22;16702;50.898;4.662;2022-08-25T03:05:11;24.00;99.90
29803;DHT22;16702;50.898;4.662;2022-08-25T03:07:45;24.10;99.90
29803;DHT22;16702;50.898;4.662;2022-08-25T03:10:16;24.00;99.90
29803;DHT22;16702;50.898;4.662;2022-08-25T03:12:47;24.00;99.90
29803;DHT22;16702;50.898;4.662;2022-08-25T03:15:18;24.00;99.90
29803;DHT22;16702;50.898;4.662;2022-08-25T03:17:48;24.00;99.90
29803;DHT22;16702;50.898;4.662;2022-08-25T03:20:19;23.90;99.90
29803;DHT22;16702;50.898;4.662;2022-08-25T03:22:52;23.90;99.90
29803;DHT22;16702;50.898;4.662;2022-08-25T03:25:22;23.90;99.90
29803;DHT22;16702;50.898;4.662;2022-08-25T03:28:06;23.90;99.90
29803;DHT22;16702;50.898;4.662;2022-08-25T03:30:37;23.90;99.90
29803;DHT22;16702;50.898;4.662;2022-08-25T03:33:07;23.90;99.90
29803;DHT22;16702;50.898;4.662;2022-08-25T03:35:39;23.70;99.90
29803;DHT22;16702;50.898;4.662;2022-08-25T03:38:12;23.70;99.90
29803;DHT22;16702;50.898;4.662;2022-08-25T03:40:43;23.80;99.90
29803;DHT22;16702;50.898;4.662;2022-08-25T03:43:13;23.70;99.90
29803;DHT22;16702;50.898;4.662;2022-08-25T03:45:45;23.80;99.90
29803;DHT22;16702;50.898;4.662;2022-08-25T03:48:16;23.70;99.90
29803;DHT22;16702;50.898;4.662;2022-08-25T03:50:49;23.70;99.90
29803;DHT22;16702;50.898;4.662;2022-08-25T03:53:23;23.70;99.90
29803;DHT22;16702;50.898;4.662;2022-08-25T03:55:54;23.60;99.90
29803;DHT22;16702;50.898;4.662;2022-08-25T03:58:24;23.70;99.90
29803;DHT22;16702;50.898;4.662;2022-08-25T04:00:54;23.70;99.90
29803;DHT22;16702;50.898;4.662;2022-08-25T04:03:26;23.70;99.90
29803;DHT22;16702;50.898;4.662;2022-08-25T04:06:00;23.70;99.90
29803;DHT22;16702;50.898;4.662;2022-08-25T04:08:33;23.60;99.90
29803;DHT22;16702;50.898;4.662;2022-08-25T04:11:07;23.60;99.90
29803;DHT22;16702;50.898;4.662;2022-08-25T04:13:39;23.60;99.90
29803;DHT22;16702;50.898;4.662;2022-08-25T04:16:11;23.60;99.90
29803;DHT22;16702;50.898;4.662;2022-08-25T04:18:43;23.60;99.90
29803;DHT22;16702;50.898;4.662;2022-08-25T04:21:14;23.60;99.90
29803;DHT22;16702;50.898;4.662;2022-08-25T04:23:48;23.70;99.90
29803;DHT22;16702;50.898;4.662;2022-08-25T04:26:22;23.60;99.90
29803;DHT22;16702;50.898;4.662;2022-08-25T04:28:55;23.50;99.90
29803;DHT22;16702;50.898;4.662;2022-08-25T04:31:26;23.40;99.90
29803;DHT22;16702;50.898;4.662;2022-08-25T04:33:57;23.50;99.90
29803;DHT22;16702;50.898;4.662;2022-08-25T04:36:50;23.50;99.90
29803;DHT22;16702;50.898;4.662;2022-08-25T04:39:23;23.40;99.90
29803;DHT22;16702;50.898;4.662;2022-08-25T04:41:53;23.40;99.90
29803;DHT22;16702;50.898;4.662;2022-08-25T04:44:24;23.40;99.90
29803;DHT22;16702;50.898;4.662;2022-08-25T04:46:55;23.30;99.90
29803;DHT22;16702;50.898;4.662;2022-08-25T04:49:25;23.30;99.90
29803;DHT22;16702;50.898;4.662;2022-08-25T04:51:56;23.30;99.90
29803;DHT22;16702;50.898;4.662;2022-08-25T04:54:31;23.40;99.90
29803;DHT22;16702;50.898;4.662;2022-08-25T04:57:03;23.30;99.90
29803;DHT22;16702;50.898;4.662;2022-08-25T04:59:34;23.30;99.90
29803;DHT22;16702;50.898;4.662;2022-08-25T05:02:05;23.30;99.90
29803;DHT22;16702;50.898;4.662;2022-08-25T05:04:36;23.30;99.90
29803;DHT22;16702;50.898;4.662;2022-08-25T05:07:07;23.20;99.90
29803;DHT22;16702;50.898;4.662;2022-08-25T05:09:40;23.20;99.90
29803;DHT22;16702;50.898;4.662;2022-08-25T05:12:11;23.10;99.90
29803;DHT22;16702;50.898;4.662;2022-08-25T05:14:42;23.10;99.90
29803;DHT22;16702;50.898;4.662;2022-08-25T05:17:12;23.20;99.90
29803;DHT22;16702;50.898;4.662;2022-08-25T05:19:43;23.20;99.90
29803;DHT22;16702;50.898;4.662;2022-08-25T05:22:13;23.20;99.90
29803;DHT22;16702;50.898;4.662;2022-08-25T05:24:46;23.20;99.90
29803;DHT22;16702;50.898;4.662;2022-08-25T05:27:17;23.20;99.90
29803;DHT22;16702;50.898;4.662;2022-08-25T05:29:47;23.20;99.90
29803;DHT22;16702;50.898;4.662;2022-08-25T05:32:18;23.30;99.90
29803;DHT22;16702;50.898;4.662;2022-08-25T05:34:48;23.30;99.90
29803;DHT22;16702;50.898;4.662;2022-08-25T05:37:19;23.30;99.80
29803;DHT22;16702;50.898;4.662;2022-08-25T05:39:52;23.30;99.80
29803;DHT22;16702;50.898;4.662;2022-08-25T05:42:22;23.30;99.90
29803;DHT22;16702;50.898;4.662;2022-08-25T05:44:54;23.30;99.40
29803;DHT22;16702;50.898;4.662;2022-08-25T05:47:24;23.30;99.60
29803;DHT22;16702;50.898;4.662;2022-08-25T05:49:55;23.40;99.40
29803;DHT22;16702;50.898;4.662;2022-08-25T05:52:26;23.40;99.30
29803;DHT22;16702;50.898;4.662;2022-08-25T05:54:59;23.40;99.20
29803;DHT22;16702;50.898;4.662;2022-08-25T05:57:29;23.40;99.70
29803;DHT22;16702;50.898;4.662;2022-08-25T06:00:02;23.50;99.90
29803;DHT22;16702;50.898;4.662;2022-08-25T06:02:38;23.40;99.90
29803;DHT22;16702;50.898;4.662;2022-08-25T06:05:12;23.50;99.90
29803;DHT22;16702;50.898;4.662;2022-08-25T06:07:44;23.40;99.90
29803;DHT22;16702;50.898;4.662;2022-08-25T06:10:18;23.50;99.90
29803;DHT22;16702;50.898;4.662;2022-08-25T06:12:49;23.50;99.90
29803;DHT22;16702;50.898;4.662;2022-08-25T06:15:23;23.60;99.90
29803;DHT22;16702;50.898;4.662;2022-08-25T06:17:54;23.60;99.90
29803;DHT22;16702;50.898;4.662;2022-08-25T06:20:30;23.70;99.90
29803;DHT22;16702;50.898;4.662;2022-08-25T06:23:01;23.70;99.80
29803;DHT22;16702;50.898;4.662;2022-08-25T06:25:34;23.80;99.50
29803;DHT22;16702;50.898;4.662;2022-08-25T06:28:04;23.80;99.90
29803;DHT22;16702;50.898;4.662;2022-08-25T06:30:34;23.90;99.90
29803;DHT22;16702;50.898;4.662;2022-08-25T06:33:05;24.00;99.70
29803;DHT22;16702;50.898;4.662;2022-08-25T06:35:36;24.00;99.50
29803;DHT22;16702;50.898;4.662;2022-08-25T06:38:10;24.00;99.30
29803;DHT22;16702;50.898;4.662;2022-08-25T06:40:47;24.00;99.30
29803;DHT22;16702;50.898;4.662;2022-08-25T06:43:18;24.10;98.80
29803;DHT22;16702;50.898;4.662;2022-08-25T06:45:50;24.10;98.70
29803;DHT22;16702;50.898;4.662;2022-08-25T06:48:20;24.10;98.30
29803;DHT22;16702;50.898;4.662;2022-08-25T06:50:52;24.20;98.40
29803;DHT22;16702;50.898;4.662;2022-08-25T06:53:23;24.20;98.50
29803;DHT22;16702;50.898;4.662;2022-08-25T06:55:59;24.20;98.50
29803;DHT22;16702;50.898;4.662;2022-08-25T06:58:34;24.20;98.30
29803;DHT22;16702;50.898;4.662;2022-08-25T07:01:10;24.30;98.10
29803;DHT22;16702;50.898;4.662;2022-08-25T07:03:46;24.30;98.00
29803;DHT22;16702;50.898;4.662;2022-08-25T07:06:18;24.30;98.00
29803;DHT22;16702;50.898;4.662;2022-08-25T07:08:49;24.30;98.30
29803;DHT22;16702;50.898;4.662;2022-08-25T07:11:22;24.40;98.60
29803;DHT22;16702;50.898;4.662;2022-08-25T07:13:53;24.40;99.30
29803;DHT22;16702;50.898;4.662;2022-08-25T07:16:23;24.50;98.90
29803;DHT22;16702;50.898;4.662;2022-08-25T07:18:57;24.50;99.00
29803;DHT22;16702;50.898;4.662;2022-08-25T07:21:29;24.50;99.30
29803;DHT22;16702;50.898;4.662;2022-08-25T07:24:04;24.50;98.80
29803;DHT22;16702;50.898;4.662;2022-08-25T07:26:39;24.60;98.80
29803;DHT22;16702;50.898;4.662;2022-08-25T07:29:15;24.60;98.80
29803;DHT22;16702;50.898;4.662;2022-08-25T07:31:58;24.60;99.20
29803;DHT22;16702;50.898;4.662;2022-08-25T07:34:29;24.70;98.80
29803;DHT22;16702;50.898;4.662;2022-08-25T07:37:20;24.70;98.60
29803;DHT22;16702;50.898;4.662;2022-08-25T07:40:14;24.80;99.30
29803;DHT22;16702;50.898;4.662;2022-08-25T07:42:47;24.80;99.00
29803;DHT22;16702;50.898;4.662;2022-08-25T07:45:19;24.90;98.80
29803;DHT22;16702;50.898;4.662;2022-08-25T07:48:01;25.00;98.80
29803;DHT22;16702;50.898;4.662;2022-08-25T07:50:33;25.00;99.20
29803;DHT22;16702;50.898;4.662;2022-08-25T07:53:05;25.10;98.20
29803;DHT22;16702;50.898;4.662;2022-08-25T07:55:37;25.20;97.90
29803;DHT22;16702;50.898;4.662;2022-08-25T07:58:14;25.30;98.20
29803;DHT22;16702;50.898;4.662;2022-08-25T08:00:47;25.20;98.50
29803;DHT22;16702;50.898;4.662;2022-08-25T08:03:19;25.30;98.00
29803;DHT22;16702;50.898;4.662;2022-08-25T08:06:13;25.40;97.90
29803;DHT22;16702;50.898;4.662;2022-08-25T08:08:45;25.50;98.10
29803;DHT22;16702;50.898;4.662;2022-08-25T08:11:24;25.50;97.70
29803;DHT22;16702;50.898;4.662;2022-08-25T08:14:01;25.70;97.80
29803;DHT22;16702;50.898;4.662;2022-08-25T08:16:32;25.80;97.80
29803;DHT22;16702;50.898;4.662;2022-08-25T08:19:04;25.80;97.80
29803;DHT22;16702;50.898;4.662;2022-08-25T08:21:36;25.90;96.80
29803;DHT22;16702;50.898;4.662;2022-08-25T08:24:06;26.00;96.90
29803;DHT22;16702;50.898;4.662;2022-08-25T08:26:57;26.10;96.40
29803;DHT22;16702;50.898;4.662;2022-08-25T08:29:31;26.10;96.80
29803;DHT22;16702;50.898;4.662;2022-08-25T08:32:07;26.10;96.80
29803;DHT22;16702;50.898;4.662;2022-08-25T08:34:40;26.30;96.90
29803;DHT22;16702;50.898;4.662;2022-08-25T08:37:10;26.30;96.80
29803;DHT22;16702;50.898;4.662;2022-08-25T08:39:42;26.20;97.00
29803;DHT22;16702;50.898;4.662;2022-08-25T08:42:21;26.30;96.40
29803;DHT22;16702;50.898;4.662;2022-08-25T08:45:05;26.30;96.50
29803;DHT22;16702;50.898;4.662;2022-08-25T08:47:49;26.40;96.10
29803;DHT22;16702;50.898;4.662;2022-08-25T08:50:28;26.40;95.90
29803;DHT22;16702;50.898;4.662;2022-08-25T08:53:04;26.40;95.50
29803;DHT22;16702;50.898;4.662;2022-08-25T08:55:40;26.50;96.10
29803;DHT22;16702;50.898;4.662;2022-08-25T08:58:20;26.60;95.80
29803;DHT22;16702;50.898;4.662;2022-08-25T09:00:57;26.70;96.00
29803;DHT22;16702;50.898;4.662;2022-08-25T09:03:33;26.80;96.00
29803;DHT22;16702;50.898;4.662;2022-08-25T09:06:07;26.90;95.90
29803;DHT22;16702;50.898;4.662;2022-08-25T09:08:41;27.00;95.70
29803;DHT22;16702;50.898;4.662;2022-08-25T09:11:19;27.00;95.50
29803;DHT22;16702;50.898;4.662;2022-08-25T09:14:03;27.10;95.40
29803;DHT22;16702;50.898;4.662;2022-08-25T09:16:45;27.30;95.40
29803;DHT22;16702;50.898;4.662;2022-08-25T09:19:45;27.40;94.20
29803;DHT22;16702;50.898;4.662;2022-08-25T09:22:27;27.50;93.50
29803;DHT22;16702;50.898;4.662;2022-08-25T09:25:10;27.60;93.50
29803;DHT22;16702;50.898;4.662;2022-08-25T09:28:05;27.70;93.90
29803;DHT22;16702;50.898;4.662;2022-08-25T09:30:42;27.80;92.20
29803;DHT22;16702;50.898;4.662;2022-08-25T09:33:19;27.90;91.70
29803;DHT22;16702;50.898;4.662;2022-08-25T09:35:51;27.80;92.70
29803;DHT22;16702;50.898;4.662;2022-08-25T09:38:24;27.90;92.40
29803;DHT22;16702;50.898;4.662;2022-08-25T09:40:59;28.00;92.50
29803;DHT22;16702;50.898;4.662;2022-08-25T09:43:32;28.10;91.20
29803;DHT22;16702;50.898;4.662;2022-08-25T09:46:10;28.30;91.40
29803;DHT22;16702;50.898;4.662;2022-08-25T09:48:51;28.20;91.30
29803;DHT22;16702;50.898;4.662;2022-08-25T09:51:26;28.30;90.20
29803;DHT22;16702;50.898;4.662;2022-08-25T09:54:17;28.50;90.60
29803;DHT22;16702;50.898;4.662;2022-08-25T09:57:00;28.60;90.10
29803;DHT22;16702;50.898;4.662;2022-08-25T09:59:36;28.70;89.20
29803;DHT22;16702;50.898;4.662;2022-08-25T10:02:26;28.70;89.10
29803;DHT22;16702;50.898;4.662;2022-08-25T10:05:18;28.80;90.20
29803;DHT22;16702;50.898;4.662;2022-08-25T10:07:52;29.00;86.90
29803;DHT22;16702;50.898;4.662;2022-08-25T10:10:28;29.10;87.30
29803;DHT22;16702;50.898;4.662;2022-08-25T10:13:01;29.10;87.00
29803;DHT22;16702;50.898;4.662;2022-08-25T10:15:34;29.30;87.40
29803;DHT22;16702;50.898;4.662;2022-08-25T10:18:19;29.30;86.40
29803;DHT22;16702;50.898;4.662;2022-08-25T10:21:07;29.40;85.70
29803;DHT22;16702;50.898;4.662;2022-08-25T10:23:42;29.50;84.90
29803;DHT22;16702;50.898;4.662;2022-08-25T10:26:30;29.60;83.40
29803;DHT22;16702;50.898;4.662;2022-08-25T10:29:13;29.60;80.70
29803;DHT22;16702;50.898;4.662;2022-08-25T10:31:55;29.70;83.70
29803;DHT22;16702;50.898;4.662;2022-08-25T10:34:35;29.90;82.00
29803;DHT22;16702;50.898;4.662;2022-08-25T10:37:21;29.90;80.70
29803;DHT22;16702;50.898;4.662;2022-08-25T10:40:01;29.90;81.80
29803;DHT22;16702;50.898;4.662;2022-08-25T10:42:36;29.90;79.10
29803;DHT22;16702;50.898;4.662;2022-08-25T10:45:18;30.00;80.90
29803;DHT22;16702;50.898;4.662;2022-08-25T10:48:35;30.20;81.00
29803;DHT22;16702;50.898;4.662;2022-08-25T10:51:18;30.30;78.90
29803;DHT22;16702;50.898;4.662;2022-08-25T10:54:02;30.20;80.50
29803;DHT22;16702;50.898;4.662;2022-08-25T10:56:36;30.20;80.50
29803;DHT22;16702;50.898;4.662;2022-08-25T10:59:30;30.40;80.40
29803;DHT22;16702;50.898;4.662;2022-08-25T11:05:10;30.50;80.90
29803;DHT22;16702;50.898;4.662;2022-08-25T11:07:53;30.60;79.00
29803;DHT22;16702;50.898;4.662;2022-08-25T11:10:37;30.60;79.50
29803;DHT22;16702;50.898;4.662;2022-08-25T11:13:15;30.70;79.20
29803;DHT22;16702;50.898;4.662;2022-08-25T11:15:51;30.80;78.60
29803;DHT22;16702;50.898;4.662;2022-08-25T11:18:48;30.80;78.60
29803;DHT22;16702;50.898;4.662;2022-08-25T11:21:22;30.90;78.00
29803;DHT22;16702;50.898;4.662;2022-08-25T11:24:00;31.10;78.10
29803;DHT22;16702;50.898;4.662;2022-08-25T11:26:40;31.10;78.10
29803;DHT22;16702;50.898;4.662;2022-08-25T11:29:16;31.20;77.60
29803;DHT22;16702;50.898;4.662;2022-08-25T11:31:50;31.20;76.40
29803;DHT22;16702;50.898;4.662;2022-08-25T11:34:21;31.30;77.20
29803;DHT22;16702;50.898;4.662;2022-08-25T11:37:02;31.40;77.60
29803;DHT22;16702;50.898;4.662;2022-08-25T11:39:50;31.60;76.50
29803;DHT22;16702;50.898;4.662;2022-08-25T11:42:34;31.50;75.80
29803;DHT22;16702;50.898;4.662;2022-08-25T11:45:19;31.70;76.40
29803;DHT22;16702;50.898;4.662;2022-08-25T11:48:00;31.70;75.80
29803;DHT22;16702;50.898;4.662;2022-08-25T11:50:52;31.70;77.50
29803;DHT22;16702;50.898;4.662;2022-08-25T11:53:25;31.80;76.50
29803;DHT22;16702;50.898;4.662;2022-08-25T11:55:58;31.90;75.70
29803;DHT22;16702;50.898;4.662;2022-08-25T11:58:48;31.90;76.50
29803;DHT22;16702;50.898;4.662;2022-08-25T12:04:39;31.80;75.50
29803;DHT22;16702;50.898;4.662;2022-08-25T12:07:18;31.70;74.80
29803;DHT22;16702;50.898;4.662;2022-08-25T12:10:09;31.70;77.30
29803;DHT22;16702;50.898;4.662;2022-08-25T12:12:57;31.80;74.50
29803;DHT22;16702;50.898;4.662;2022-08-25T12:15:55;31.90;74.30
29803;DHT22;16702;50.898;4.662;2022-08-25T12:18:42;32.00;74.30
29803;DHT22;16702;50.898;4.662;2022-08-25T12:21:34;32.00;75.70
29803;DHT22;16702;50.898;4.662;2022-08-25T12:24:11;32.00;75.20
29803;DHT22;16702;50.898;4.662;2022-08-25T12:26:48;32.20;74.10
29803;DHT22;16702;50.898;4.662;2022-08-25T12:29:26;32.30;73.60
29803;DHT22;16702;50.898;4.662;2022-08-25T12:32:26;32.50;72.20
29803;DHT22;16702;50.898;4.662;2022-08-25T12:35:25;32.30;73.30
29803;DHT22;16702;50.898;4.662;2022-08-25T12:38:02;32.10;72.60
29803;DHT22;16702;50.898;4.662;2022-08-25T12:40:37;32.00;72.90
29803;DHT22;16702;50.898;4.662;2022-08-25T12:43:12;31.90;73.40
29803;DHT22;16702;50.898;4.662;2022-08-25T12:45:54;31.80;73.20
29803;DHT22;16702;50.898;4.662;2022-08-25T12:48:57;31.80;73.10
29803;DHT22;16702;50.898;4.662;2022-08-25T12:51:45;32.10;73.80
29803;DHT22;16702;50.898;4.662;2022-08-25T12:54:21;32.20;72.90
29803;DHT22;16702;50.898;4.662;2022-08-25T12:56:56;32.00;73.90
29803;DHT22;16702;50.898;4.662;2022-08-25T12:59:34;31.90;73.90
29803;DHT22;16702;50.898;4.662;2022-08-25T13:08:24;32.30;72.70
29803;DHT22;16702;50.898;4.662;2022-08-25T13:11:08;32.30;73.00
29803;DHT22;16702;50.898;4.662;2022-08-25T13:13:47;32.10;72.80
29803;DHT22;16702;50.898;4.662;2022-08-25T13:16:20;32.00;73.00
29803;DHT22;16702;50.898;4.662;2022-08-25T13:18:57;32.00;73.50
29803;DHT22;16702;50.898;4.662;2022-08-25T13:21:30;31.90;72.90
29803;DHT22;16702;50.898;4.662;2022-08-25T13:24:13;31.90;74.40
29803;DHT22;16702;50.898;4.662;2022-08-25T13:26:53;31.90;74.30
29803;DHT22;16702;50.898;4.662;2022-08-25T13:29:27;32.30;72.90
29803;DHT22;16702;50.898;4.662;2022-08-25T13:32:06;32.70;72.60
29803;DHT22;16702;50.898;4.662;2022-08-25T13:34:42;32.80;71.00
29803;DHT22;16702;50.898;4.662;2022-08-25T13:37:16;33.00;71.20
29803;DHT22;16702;50.898;4.662;2022-08-25T13:40:13;32.90;71.30
29803;DHT22;16702;50.898;4.662;2022-08-25T13:42:47;32.90;70.70
29803;DHT22;16702;50.898;4.662;2022-08-25T13:45:26;33.00;71.20
29803;DHT22;16702;50.898;4.662;2022-08-25T13:47:58;33.20;71.40
29803;DHT22;16702;50.898;4.662;2022-08-25T13:50:33;33.30;70.10
29803;DHT22;16702;50.898;4.662;2022-08-25T13:53:09;33.40;71.40
29803;DHT22;16702;50.898;4.662;2022-08-25T13:55:51;33.40;69.90
29803;DHT22;16702;50.898;4.662;2022-08-25T13:58:25;33.60;69.00
29803;DHT22;16702;50.898;4.662;2022-08-25T14:01:12;33.70;68.10
29803;DHT22;16702;50.898;4.662;2022-08-25T14:04:30;33.80;68.10
29803;DHT22;16702;50.898;4.662;2022-08-25T14:07:22;34.00;68.70
29803;DHT22;16702;50.898;4.662;2022-08-25T14:10:01;34.00;67.50
29803;DHT22;16702;50.898;4.662;2022-08-25T14:12:37;34.00;68.10
29803;DHT22;16702;50.898;4.662;2022-08-25T14:15:26;34.20;67.60
29803;DHT22;16702;50.898;4.662;2022-08-25T14:18:02;34.20;68.80
29803;DHT22;16702;50.898;4.662;2022-08-25T14:20:35;34.10;68.30
29803;DHT22;16702;50.898;4.662;2022-08-25T14:23:10;33.80;67.80
29803;DHT22;16702;50.898;4.662;2022-08-25T14:25:44;33.80;67.70
29803;DHT22;16702;50.898;4.662;2022-08-25T14:28:20;33.90;67.70
29803;DHT22;16702;50.898;4.662;2022-08-25T14:30:53;33.90;67.70
29803;DHT22;16702;50.898;4.662;2022-08-25T14:33:29;34.10;67.70
29803;DHT22;16702;50.898;4.662;2022-08-25T14:36:04;34.20;68.20
29803;DHT22;16702;50.898;4.662;2022-08-25T14:38:35;34.30;66.90
29803;DHT22;16702;50.898;4.662;2022-08-25T14:41:10;34.00;66.40
29803;DHT22;16702;50.898;4.662;2022-08-25T14:43:46;33.70;67.90
29803;DHT22;16702;50.898;4.662;2022-08-25T14:46:19;33.70;68.30
29803;DHT22;16702;50.898;4.662;2022-08-25T14:48:53;33.50;68.10
29803;DHT22;16702;50.898;4.662;2022-08-25T14:51:27;33.40;70.70
29803;DHT22;16702;50.898;4.662;2022-08-25T14:54:01;33.40;68.50
29803;DHT22;16702;50.898;4.662;2022-08-25T14:56:38;33.30;68.70
29803;DHT22;16702;50.898;4.662;2022-08-25T14:59:12;33.40;71.30
29803;DHT22;16702;50.898;4.662;2022-08-25T15:01:42;33.20;77.30
29803;DHT22;16702;50.898;4.662;2022-08-25T15:04:19;33.20;78.90
29803;DHT22;16702;50.898;4.662;2022-08-25T15:06:54;33.30;80.50
29803;DHT22;16702;50.898;4.662;2022-08-25T15:09:25;33.40;79.70
29803;DHT22;16702;50.898;4.662;2022-08-25T15:11:59;33.30;79.40
29803;DHT22;16702;50.898;4.662;2022-08-25T15:14:33;33.30;79.70
29803;DHT22;16702;50.898;4.662;2022-08-25T15:17:07;33.50;78.90
29803;DHT22;16702;50.898;4.662;2022-08-25T15:19:41;33.40;79.20
29803;DHT22;16702;50.898;4.662;2022-08-25T15:22:13;33.30;79.30
29803;DHT22;16702;50.898;4.662;2022-08-25T15:24:44;33.40;80.20
29803;DHT22;16702;50.898;4.662;2022-08-25T15:27:17;33.30;79.10
29803;DHT22;16702;50.898;4.662;2022-08-25T15:29:50;33.30;79.80
29803;DHT22;16702;50.898;4.662;2022-08-25T15:32:21;33.40;80.50
29803;DHT22;16702;50.898;4.662;2022-08-25T15:34:53;33.40;80.50
29803;DHT22;16702;50.898;4.662;2022-08-25T15:37:24;33.30;80.10
29803;DHT22;16702;50.898;4.662;2022-08-25T15:39:55;33.40;80.30
29803;DHT22;16702;50.898;4.662;2022-08-25T15:42:26;33.50;79.70
29803;DHT22;16702;50.898;4.662;2022-08-25T15:44:58;33.50;79.50
29803;DHT22;16702;50.898;4.662;2022-08-25T15:47:31;33.40;78.10
29803;DHT22;16702;50.898;4.662;2022-08-25T15:50:05;33.40;79.30
29803;DHT22;16702;50.898;4.662;2022-08-25T15:52:36;33.40;78.60
29803;DHT22;16702;50.898;4.662;2022-08-25T15:55:15;33.50;79.50
29803;DHT22;16702;50.898;4.662;2022-08-25T15:57:47;33.50;79.90
29803;DHT22;16702;50.898;4.662;2022-08-25T16:00:21;33.50;80.20
29803;DHT22;16702;50.898;4.662;2022-08-25T16:02:51;33.40;80.90
29803;DHT22;16702;50.898;4.662;2022-08-25T16:05:22;33.40;81.60
29803;DHT22;16702;50.898;4.662;2022-08-25T16:07:53;33.30;86.70
29803;DHT22;16702;50.898;4.662;2022-08-25T16:10:23;32.90;89.10
29803;DHT22;16702;50.898;4.662;2022-08-25T16:12:53;32.60;90.40
29803;DHT22;16702;50.898;4.662;2022-08-25T16:15:27;32.50;90.60
29803;DHT22;16702;50.898;4.662;2022-08-25T16:17:58;32.40;91.10
29803;DHT22;16702;50.898;4.662;2022-08-25T16:20:32;32.50;90.90
29803;DHT22;16702;50.898;4.662;2022-08-25T16:23:03;32.50;91.20
29803;DHT22;16702;50.898;4.662;2022-08-25T16:25:39;32.40;91.70
29803;DHT22;16702;50.898;4.662;2022-08-25T16:28:14;32.60;91.90
29803;DHT22;16702;50.898;4.662;2022-08-25T16:30:53;32.40;92.20
29803;DHT22;16702;50.898;4.662;2022-08-25T16:33:23;32.10;92.70
29803;DHT22;16702;50.898;4.662;2022-08-25T16:36:03;32.30;92.60